sensor_id;sensor_type;location;lat;lon;timestamp;P1;durP1;ratioP1;P2;durP2;ratioP2
38132;SDS011;23948;43.252;26.572;2022-12-18T00:01:31;4.80;;;3.30;;
38132;SDS011;23948;43.252;26.572;2022-12-18T00:03:56;5.43;;;3.53;;
38132;SDS011;23948;43.252;26.572;2022-12-18T00:06:22;6.30;;;3.83;;
38132;SDS011;23948;43.252;26.572;2022-12-18T00:08:48;8.00;;;4.50;;
38132;SDS011;23948;43.252;26.572;2022-12-18T00:11:15;6.10;;;4.15;;
38132;SDS011;23948;43.252;26.572;2022-12-18T00:13:40;15.32;;;9.57;;
38132;SDS011;23948;43.252;26.572;2022-12-18T00:16:10;9.15;;;6.03;;
38132;SDS011;23948;43.252;26.572;2022-12-18T00:18:35;6.83;;;4.87;;
38132;SDS011;23948;43.252;26.572;2022-12-18T00:21:03;7.78;;;4.90;;
38132;SDS011;23948;43.252;26.572;2022-12-18T00:23:30;5.88;;;3.90;;
38132;SDS011;23948;43.252;26.572;2022-12-18T00:25:58;5.72;;;3.75;;
38132;SDS011;23948;43.252;26.572;2022-12-18T00:28:24;6.35;;;4.10;;
38132;SDS011;23948;43.252;26.572;2022-12-18T00:30:49;6.05;;;4.10;;
38132;SDS011;23948;43.252;26.572;2022-12-18T00:33:16;7.20;;;4.10;;
38132;SDS011;23948;43.252;26.572;2022-12-18T00:35:41;5.97;;;3.60;;
38132;SDS011;23948;43.252;26.572;2022-12-18T00:38:07;5.55;;;3.70;;
38132;SDS011;23948;43.252;26.572;2022-12-18T00:40:32;5.72;;;3.50;;
38132;SDS011;23948;43.252;26.572;2022-12-18T00:42:57;6.18;;;4.03;;
38132;SDS011;23948;43.252;26.572;2022-12-18T00:45:23;7.40;;;4.60;;
38132;SDS011;23948;43.252;26.572;2022-12-18T00:47:49;6.35;;;4.30;;
38132;SDS011;23948;43.252;26.572;2022-12-18T00:50:14;6.80;;;4.63;;
38132;SDS011;23948;43.252;26.572;2022-12-18T00:52:39;6.57;;;4.22;;
38132;SDS011;23948;43.252;26.572;2022-12-18T00:55:05;8.63;;;4.68;;
38132;SDS011;23948;43.252;26.572;2022-12-18T00:57:30;5.97;;;4.00;;
38132;SDS011;23948;43.252;26.572;2022-12-18T00:59:55;6.18;;;4.10;;
38132;SDS011;23948;43.252;26.572;2022-12-18T01:02:21;6.55;;;4.07;;
38132;SDS011;23948;43.252;26.572;2022-12-18T01:04:46;6.25;;;4.05;;
38132;SDS011;23948;43.252;26.572;2022-12-18T01:07:11;7.10;;;4.20;;
38132;SDS011;23948;43.252;26.572;2022-12-18T01:09:37;6.43;;;4.18;;
38132;SDS011;23948;43.252;26.572;2022-12-18T01:12:02;6.07;;;3.67;;
38132;SDS011;23948;43.252;26.572;2022-12-18T01:14:27;6.55;;;4.40;;
38132;SDS011;23948;43.252;26.572;2022-12-18T01:16:53;6.50;;;4.38;;
38132;SDS011;23948;43.252;26.572;2022-12-18T01:19:18;7.25;;;4.63;;
38132;SDS011;23948;43.252;26.572;2022-12-18T01:21:43;7.00;;;4.63;;
38132;SDS011;23948;43.252;26.572;2022-12-18T01:24:10;6.60;;;3.72;;
38132;SDS011;23948;43.252;26.572;2022-12-18T01:26:36;7.65;;;5.25;;
38132;SDS011;23948;43.252;26.572;2022-12-18T01:29:01;7.85;;;5.20;;
38132;SDS011;23948;43.252;26.572;2022-12-18T01:31:28;13.57;;;8.95;;
38132;SDS011;23948;43.252;26.572;2022-12-18T01:33:53;13.20;;;8.65;;
38132;SDS011;23948;43.252;26.572;2022-12-18T01:36:20;9.18;;;5.88;;
38132;SDS011;23948;43.252;26.572;2022-12-18T01:38:46;7.93;;;5.07;;
38132;SDS011;23948;43.252;26.572;2022-12-18T01:41:12;9.40;;;5.63;;
38132;SDS011;23948;43.252;26.572;2022-12-18T01:46:06;6.45;;;4.25;;
38132;SDS011;23948;43.252;26.572;2022-12-18T01:48:31;8.27;;;5.28;;
38132;SDS011;23948;43.252;26.572;2022-12-18T01:50:56;7.55;;;4.93;;
38132;SDS011;23948;43.252;26.572;2022-12-18T01:53:22;6.47;;;4.40;;
38132;SDS011;23948;43.252;26.572;2022-12-18T01:55:49;8.73;;;5.85;;
38132;SDS011;23948;43.252;26.572;2022-12-18T01:58:15;9.35;;;5.60;;
38132;SDS011;23948;43.252;26.572;2022-12-18T02:00:41;9.07;;;5.93;;
38132;SDS011;23948;43.252;26.572;2022-12-18T02:03:06;9.88;;;5.90;;
38132;SDS011;23948;43.252;26.572;2022-12-18T02:08:19;9.10;;;5.85;;
38132;SDS011;23948;43.252;26.572;2022-12-18T02:10:47;9.93;;;6.43;;
38132;SDS011;23948;43.252;26.572;2022-12-18T02:13:28;13.18;;;7.38;;
38132;SDS011;23948;43.252;26.572;2022-12-18T02:18:40;9.70;;;5.95;;
38132;SDS011;23948;43.252;26.572;2022-12-18T02:26:40;10.20;;;6.60;;
38132;SDS011;23948;43.252;26.572;2022-12-18T02:28:59;10.55;;;6.47;;
38132;SDS011;23948;43.252;26.572;2022-12-18T02:31:26;10.20;;;6.20;;
38132;SDS011;23948;43.252;26.572;2022-12-18T02:33:53;10.35;;;6.60;;
38132;SDS011;23948;43.252;26.572;2022-12-18T02:36:19;9.50;;;6.25;;
38132;SDS011;23948;43.252;26.572;2022-12-18T02:38:45;9.68;;;6.28;;
38132;SDS011;23948;43.252;26.572;2022-12-18T02:41:11;10.77;;;6.57;;
38132;SDS011;23948;43.252;26.572;2022-12-18T02:43:38;10.88;;;6.57;;
38132;SDS011;23948;43.252;26.572;2022-12-18T02:46:20;10.50;;;7.15;;
38132;SDS011;23948;43.252;26.572;2022-12-18T02:48:48;10.48;;;6.80;;
38132;SDS011;23948;43.252;26.572;2022-12-18T02:51:19;10.95;;;7.30;;
38132;SDS011;23948;43.252;26.572;2022-12-18T02:53:52;12.02;;;8.30;;
38132;SDS011;23948;43.252;26.572;2022-12-18T02:56:19;12.27;;;8.23;;
38132;SDS011;23948;43.252;26.572;2022-12-18T02:58:55;12.07;;;8.15;;
38132;SDS011;23948;43.252;26.572;2022-12-18T03:01:26;13.27;;;9.13;;
38132;SDS011;23948;43.252;26.572;2022-12-18T03:06:22;13.23;;;8.83;;
38132;SDS011;23948;43.252;26.572;2022-12-18T03:08:50;13.23;;;8.52;;
38132;SDS011;23948;43.252;26.572;2022-12-18T03:11:16;13.20;;;9.00;;
38132;SDS011;23948;43.252;26.572;2022-12-18T03:14:02;14.25;;;9.18;;
38132;SDS011;23948;43.252;26.572;2022-12-18T03:16:29;11.90;;;8.45;;
38132;SDS011;23948;43.252;26.572;2022-12-18T03:19:00;12.98;;;7.88;;
38132;SDS011;23948;43.252;26.572;2022-12-18T03:21:28;12.52;;;8.60;;
38132;SDS011;23948;43.252;26.572;2022-12-18T03:23:57;13.75;;;9.10;;
38132;SDS011;23948;43.252;26.572;2022-12-18T03:26:23;13.95;;;8.98;;
38132;SDS011;23948;43.252;26.572;2022-12-18T03:28:57;14.35;;;9.35;;
38132;SDS011;23948;43.252;26.572;2022-12-18T03:31:24;16.60;;;10.32;;
38132;SDS011;23948;43.252;26.572;2022-12-18T03:33:52;15.40;;;10.50;;
38132;SDS011;23948;43.252;26.572;2022-12-18T03:36:18;16.98;;;10.30;;
38132;SDS011;23948;43.252;26.572;2022-12-18T03:38:43;14.88;;;9.95;;
38132;SDS011;23948;43.252;26.572;2022-12-18T03:43:51;16.75;;;10.98;;
38132;SDS011;23948;43.252;26.572;2022-12-18T03:46:24;14.10;;;9.85;;
38132;SDS011;23948;43.252;26.572;2022-12-18T03:48:52;14.23;;;9.30;;
38132;SDS011;23948;43.252;26.572;2022-12-18T03:51:33;16.13;;;10.23;;
38132;SDS011;23948;43.252;26.572;2022-12-18T03:54:01;14.77;;;10.07;;
38132;SDS011;23948;43.252;26.572;2022-12-18T03:56:32;22.83;;;16.40;;
38132;SDS011;23948;43.252;26.572;2022-12-18T03:58:58;18.92;;;13.48;;
38132;SDS011;23948;43.252;26.572;2022-12-18T04:01:29;20.35;;;14.30;;
38132;SDS011;23948;43.252;26.572;2022-12-18T04:03:56;18.88;;;11.43;;
38132;SDS011;23948;43.252;26.572;2022-12-18T04:06:23;19.48;;;11.23;;
38132;SDS011;23948;43.252;26.572;2022-12-18T04:08:48;17.13;;;11.43;;
38132;SDS011;23948;43.252;26.572;2022-12-18T04:11:14;17.88;;;12.00;;
38132;SDS011;23948;43.252;26.572;2022-12-18T04:13:39;16.20;;;10.70;;
38132;SDS011;23948;43.252;26.572;2022-12-18T04:16:07;18.85;;;11.93;;
38132;SDS011;23948;43.252;26.572;2022-12-18T04:18:32;19.33;;;12.57;;
38132;SDS011;23948;43.252;26.572;2022-12-18T04:20:57;40.00;;;24.45;;
38132;SDS011;23948;43.252;26.572;2022-12-18T04:23:23;20.13;;;12.68;;
38132;SDS011;23948;43.252;26.572;2022-12-18T04:25:48;29.98;;;18.90;;
38132;SDS011;23948;43.252;26.572;2022-12-18T04:28:13;21.83;;;13.73;;
38132;SDS011;23948;43.252;26.572;2022-12-18T04:30:39;23.15;;;15.38;;
38132;SDS011;23948;43.252;26.572;2022-12-18T04:33:08;20.52;;;13.32;;
38132;SDS011;23948;43.252;26.572;2022-12-18T04:35:33;21.85;;;13.50;;
38132;SDS011;23948;43.252;26.572;2022-12-18T04:37:58;21.42;;;13.00;;
38132;SDS011;23948;43.252;26.572;2022-12-18T04:40:24;22.17;;;14.18;;
38132;SDS011;23948;43.252;26.572;2022-12-18T04:42:49;22.35;;;14.82;;
38132;SDS011;23948;43.252;26.572;2022-12-18T04:45:14;21.15;;;13.48;;
38132;SDS011;23948;43.252;26.572;2022-12-18T04:47:39;22.27;;;13.88;;
38132;SDS011;23948;43.252;26.572;2022-12-18T04:50:05;23.35;;;14.68;;
38132;SDS011;23948;43.252;26.572;2022-12-18T04:52:30;22.98;;;15.02;;
38132;SDS011;23948;43.252;26.572;2022-12-18T04:54:56;26.45;;;15.70;;
38132;SDS011;23948;43.252;26.572;2022-12-18T04:57:21;25.13;;;17.60;;
38132;SDS011;23948;43.252;26.572;2022-12-18T04:59:46;22.80;;;15.30;;
38132;SDS011;23948;43.252;26.572;2022-12-18T05:02:11;25.90;;;16.15;;
38132;SDS011;23948;43.252;26.572;2022-12-18T05:04:37;24.35;;;15.55;;
38132;SDS011;23948;43.252;26.572;2022-12-18T05:07:02;28.52;;;18.75;;
38132;SDS011;23948;43.252;26.572;2022-12-18T05:09:28;25.98;;;16.90;;
38132;SDS011;23948;43.252;26.572;2022-12-18T05:11:53;28.77;;;18.02;;
38132;SDS011;23948;43.252;26.572;2022-12-18T05:14:18;29.65;;;17.40;;
38132;SDS011;23948;43.252;26.572;2022-12-18T05:16:44;26.55;;;16.30;;
38132;SDS011;23948;43.252;26.572;2022-12-18T05:19:09;24.52;;;15.65;;
38132;SDS011;23948;43.252;26.572;2022-12-18T05:21:34;27.55;;;18.23;;
38132;SDS011;23948;43.252;26.572;2022-12-18T05:24:01;28.02;;;18.08;;
38132;SDS011;23948;43.252;26.572;2022-12-18T05:26:27;30.33;;;19.80;;
38132;SDS011;23948;43.252;26.572;2022-12-18T05:28:52;27.00;;;17.95;;
38132;SDS011;23948;43.252;26.572;2022-12-18T05:31:17;27.08;;;17.35;;
38132;SDS011;23948;43.252;26.572;2022-12-18T05:33:42;28.05;;;17.58;;
38132;SDS011;23948;43.252;26.572;2022-12-18T05:36:09;29.73;;;17.67;;
38132;SDS011;23948;43.252;26.572;2022-12-18T05:38:36;24.55;;;16.08;;
38132;SDS011;23948;43.252;26.572;2022-12-18T05:41:02;27.23;;;16.38;;
38132;SDS011;23948;43.252;26.572;2022-12-18T05:43:28;29.63;;;16.50;;
38132;SDS011;23948;43.252;26.572;2022-12-18T05:45:53;24.90;;;16.02;;
38132;SDS011;23948;43.252;26.572;2022-12-18T05:48:22;26.02;;;15.95;;
38132;SDS011;23948;43.252;26.572;2022-12-18T05:50:48;26.02;;;15.15;;
38132;SDS011;23948;43.252;26.572;2022-12-18T05:53:14;23.13;;;13.98;;
38132;SDS011;23948;43.252;26.572;2022-12-18T05:55:39;22.63;;;14.98;;
38132;SDS011;23948;43.252;26.572;2022-12-18T05:58:05;22.80;;;14.63;;
38132;SDS011;23948;43.252;26.572;2022-12-18T06:00:31;23.95;;;15.73;;
38132;SDS011;23948;43.252;26.572;2022-12-18T06:02:57;27.50;;;17.17;;
38132;SDS011;23948;43.252;26.572;2022-12-18T06:05:22;28.85;;;19.42;;
38132;SDS011;23948;43.252;26.572;2022-12-18T06:07:48;29.02;;;16.85;;
38132;SDS011;23948;43.252;26.572;2022-12-18T06:10:13;27.55;;;16.23;;
38132;SDS011;23948;43.252;26.572;2022-12-18T06:12:38;24.52;;;14.82;;
38132;SDS011;23948;43.252;26.572;2022-12-18T06:15:04;31.58;;;16.80;;
38132;SDS011;23948;43.252;26.572;2022-12-18T06:17:32;29.95;;;17.63;;
38132;SDS011;23948;43.252;26.572;2022-12-18T06:19:58;31.52;;;19.60;;
38132;SDS011;23948;43.252;26.572;2022-12-18T06:22:23;28.30;;;18.17;;
38132;SDS011;23948;43.252;26.572;2022-12-18T06:24:49;39.38;;;25.55;;
38132;SDS011;23948;43.252;26.572;2022-12-18T06:27:14;27.70;;;19.20;;
38132;SDS011;23948;43.252;26.572;2022-12-18T06:29:40;30.30;;;22.45;;
38132;SDS011;23948;43.252;26.572;2022-12-18T06:32:05;25.45;;;17.67;;
38132;SDS011;23948;43.252;26.572;2022-12-18T06:34:30;27.25;;;19.58;;
38132;SDS011;23948;43.252;26.572;2022-12-18T06:36:56;26.65;;;17.00;;
38132;SDS011;23948;43.252;26.572;2022-12-18T06:39:21;26.23;;;16.10;;
38132;SDS011;23948;43.252;26.572;2022-12-18T06:41:46;24.42;;;16.80;;
38132;SDS011;23948;43.252;26.572;2022-12-18T06:44:11;24.67;;;16.40;;
38132;SDS011;23948;43.252;26.572;2022-12-18T06:46:37;26.95;;;16.25;;
38132;SDS011;23948;43.252;26.572;2022-12-18T06:49:02;28.52;;;17.63;;
38132;SDS011;23948;43.252;26.572;2022-12-18T06:51:28;26.00;;;16.30;;
38132;SDS011;23948;43.252;26.572;2022-12-18T06:53:53;27.73;;;17.27;;
38132;SDS011;23948;43.252;26.572;2022-12-18T06:56:18;28.63;;;18.27;;
38132;SDS011;23948;43.252;26.572;2022-12-18T06:58:44;27.02;;;16.90;;
38132;SDS011;23948;43.252;26.572;2022-12-18T07:01:10;29.95;;;18.48;;
38132;SDS011;23948;43.252;26.572;2022-12-18T07:03:36;28.48;;;18.63;;
38132;SDS011;23948;43.252;26.572;2022-12-18T07:06:01;32.70;;;20.55;;
38132;SDS011;23948;43.252;26.572;2022-12-18T07:08:28;25.80;;;16.15;;
38132;SDS011;23948;43.252;26.572;2022-12-18T07:10:53;27.55;;;17.92;;
38132;SDS011;23948;43.252;26.572;2022-12-18T07:13:19;30.23;;;16.67;;
38132;SDS011;23948;43.252;26.572;2022-12-18T07:15:44;26.10;;;17.15;;
38132;SDS011;23948;43.252;26.572;2022-12-18T07:18:09;26.58;;;17.17;;
38132;SDS011;23948;43.252;26.572;2022-12-18T07:20:34;96.53;;;50.92;;
38132;SDS011;23948;43.252;26.572;2022-12-18T07:23:01;35.08;;;20.90;;
38132;SDS011;23948;43.252;26.572;2022-12-18T07:25:27;44.05;;;24.25;;
38132;SDS011;23948;43.252;26.572;2022-12-18T07:27:52;26.45;;;16.35;;
38132;SDS011;23948;43.252;26.572;2022-12-18T07:30:17;59.67;;;37.75;;
38132;SDS011;23948;43.252;26.572;2022-12-18T07:32:43;40.25;;;26.50;;
38132;SDS011;23948;43.252;26.572;2022-12-18T07:35:12;27.95;;;18.65;;
38132;SDS011;23948;43.252;26.572;2022-12-18T07:38:01;34.72;;;24.67;;
38132;SDS011;23948;43.252;26.572;2022-12-18T07:40:26;33.28;;;23.60;;
38132;SDS011;23948;43.252;26.572;2022-12-18T07:42:52;24.63;;;17.30;;
38132;SDS011;23948;43.252;26.572;2022-12-18T07:45:17;29.27;;;17.70;;
38132;SDS011;23948;43.252;26.572;2022-12-18T07:47:42;30.00;;;19.88;;
38132;SDS011;23948;43.252;26.572;2022-12-18T07:50:08;35.97;;;23.92;;
38132;SDS011;23948;43.252;26.572;2022-12-18T07:52:33;30.25;;;20.88;;
38132;SDS011;23948;43.252;26.572;2022-12-18T07:54:58;29.08;;;19.75;;
38132;SDS011;23948;43.252;26.572;2022-12-18T07:57:24;27.27;;;18.08;;
38132;SDS011;23948;43.252;26.572;2022-12-18T07:59:49;25.58;;;16.73;;
38132;SDS011;23948;43.252;26.572;2022-12-18T08:02:14;28.00;;;18.83;;
38132;SDS011;23948;43.252;26.572;2022-12-18T08:04:39;28.08;;;18.45;;
38132;SDS011;23948;43.252;26.572;2022-12-18T08:07:05;29.65;;;17.13;;
38132;SDS011;23948;43.252;26.572;2022-12-18T08:09:30;25.23;;;17.50;;
38132;SDS011;23948;43.252;26.572;2022-12-18T08:11:56;26.30;;;16.00;;
38132;SDS011;23948;43.252;26.572;2022-12-18T08:14:21;24.17;;;15.88;;
38132;SDS011;23948;43.252;26.572;2022-12-18T08:16:46;22.13;;;15.30;;
38132;SDS011;23948;43.252;26.572;2022-12-18T08:19:11;47.15;;;28.48;;
38132;SDS011;23948;43.252;26.572;2022-12-18T08:21:37;62.70;;;34.85;;
38132;SDS011;23948;43.252;26.572;2022-12-18T08:24:02;37.42;;;23.00;;
38132;SDS011;23948;43.252;26.572;2022-12-18T08:26:29;31.02;;;20.52;;
38132;SDS011;23948;43.252;26.572;2022-12-18T08:28:55;35.47;;;22.00;;
38132;SDS011;23948;43.252;26.572;2022-12-18T08:31:21;30.67;;;19.95;;
38132;SDS011;23948;43.252;26.572;2022-12-18T08:33:48;33.45;;;20.35;;
38132;SDS011;23948;43.252;26.572;2022-12-18T08:36:13;34.38;;;21.50;;
38132;SDS011;23948;43.252;26.572;2022-12-18T08:38:38;27.20;;;17.95;;
38132;SDS011;23948;43.252;26.572;2022-12-18T08:43:29;32.25;;;21.30;;
38132;SDS011;23948;43.252;26.572;2022-12-18T08:46:16;27.60;;;18.45;;
38132;SDS011;23948;43.252;26.572;2022-12-18T08:48:42;30.98;;;20.20;;
38132;SDS011;23948;43.252;26.572;2022-12-18T08:51:07;27.45;;;18.52;;
38132;SDS011;23948;43.252;26.572;2022-12-18T08:53:34;27.63;;;18.77;;
38132;SDS011;23948;43.252;26.572;2022-12-18T08:55:59;28.05;;;19.15;;
38132;SDS011;23948;43.252;26.572;2022-12-18T08:58:25;27.75;;;19.30;;
38132;SDS011;23948;43.252;26.572;2022-12-18T09:00:50;32.33;;;18.95;;
38132;SDS011;23948;43.252;26.572;2022-12-18T09:03:16;30.17;;;19.75;;
38132;SDS011;23948;43.252;26.572;2022-12-18T09:05:42;31.27;;;20.45;;
38132;SDS011;23948;43.252;26.572;2022-12-18T09:08:07;27.83;;;18.40;;
38132;SDS011;23948;43.252;26.572;2022-12-18T09:10:33;29.48;;;20.58;;
38132;SDS011;23948;43.252;26.572;2022-12-18T09:12:58;31.20;;;21.83;;
38132;SDS011;23948;43.252;26.572;2022-12-18T09:15:24;28.25;;;17.55;;
38132;SDS011;23948;43.252;26.572;2022-12-18T09:17:49;28.48;;;18.63;;
38132;SDS011;23948;43.252;26.572;2022-12-18T09:20:15;28.55;;;19.08;;
38132;SDS011;23948;43.252;26.572;2022-12-18T09:22:41;29.13;;;18.52;;
38132;SDS011;23948;43.252;26.572;2022-12-18T09:25:06;27.45;;;16.70;;
38132;SDS011;23948;43.252;26.572;2022-12-18T09:27:33;42.67;;;23.52;;
38132;SDS011;23948;43.252;26.572;2022-12-18T09:29:58;36.20;;;22.25;;
38132;SDS011;23948;43.252;26.572;2022-12-18T09:32:23;29.60;;;16.88;;
38132;SDS011;23948;43.252;26.572;2022-12-18T09:34:48;27.63;;;17.13;;
38132;SDS011;23948;43.252;26.572;2022-12-18T09:37:14;48.00;;;30.30;;
38132;SDS011;23948;43.252;26.572;2022-12-18T09:39:39;31.70;;;20.80;;
38132;SDS011;23948;43.252;26.572;2022-12-18T09:42:04;31.50;;;20.15;;
38132;SDS011;23948;43.252;26.572;2022-12-18T09:44:36;36.45;;;19.85;;
38132;SDS011;23948;43.252;26.572;2022-12-18T09:47:04;30.48;;;20.67;;
38132;SDS011;23948;43.252;26.572;2022-12-18T09:49:32;30.65;;;21.00;;
38132;SDS011;23948;43.252;26.572;2022-12-18T09:52:04;32.20;;;20.20;;
38132;SDS011;23948;43.252;26.572;2022-12-18T09:54:35;33.75;;;21.52;;
38132;SDS011;23948;43.252;26.572;2022-12-18T09:57:01;30.75;;;21.45;;
38132;SDS011;23948;43.252;26.572;2022-12-18T09:59:32;30.58;;;20.95;;
38132;SDS011;23948;43.252;26.572;2022-12-18T10:01:59;32.70;;;20.73;;
38132;SDS011;23948;43.252;26.572;2022-12-18T10:04:25;33.25;;;21.33;;
38132;SDS011;23948;43.252;26.572;2022-12-18T10:09:43;31.10;;;21.25;;
38132;SDS011;23948;43.252;26.572;2022-12-18T10:12:20;31.95;;;20.13;;
38132;SDS011;23948;43.252;26.572;2022-12-18T10:19:55;54.33;;;32.08;;
38132;SDS011;23948;43.252;26.572;2022-12-18T10:22:26;31.80;;;20.42;;
38132;SDS011;23948;43.252;26.572;2022-12-18T10:24:56;32.33;;;20.55;;
38132;SDS011;23948;43.252;26.572;2022-12-18T10:27:24;31.55;;;20.42;;
38132;SDS011;23948;43.252;26.572;2022-12-18T10:29:50;30.60;;;20.08;;
38132;SDS011;23948;43.252;26.572;2022-12-18T10:32:17;36.60;;;22.13;;
38132;SDS011;23948;43.252;26.572;2022-12-18T10:34:46;32.78;;;20.15;;
38132;SDS011;23948;43.252;26.572;2022-12-18T10:37:16;28.75;;;18.98;;
38132;SDS011;23948;43.252;26.572;2022-12-18T10:39:42;28.13;;;19.25;;
38132;SDS011;23948;43.252;26.572;2022-12-18T10:42:25;34.58;;;22.75;;
38132;SDS011;23948;43.252;26.572;2022-12-18T10:45:00;34.60;;;21.95;;
38132;SDS011;23948;43.252;26.572;2022-12-18T10:47:26;32.90;;;20.70;;
38132;SDS011;23948;43.252;26.572;2022-12-18T10:49:52;37.47;;;22.73;;
38132;SDS011;23948;43.252;26.572;2022-12-18T10:52:21;36.13;;;23.65;;
38132;SDS011;23948;43.252;26.572;2022-12-18T10:54:51;42.30;;;25.80;;
38132;SDS011;23948;43.252;26.572;2022-12-18T10:57:19;34.10;;;21.75;;
38132;SDS011;23948;43.252;26.572;2022-12-18T10:59:54;38.53;;;23.27;;
38132;SDS011;23948;43.252;26.572;2022-12-18T11:02:34;36.40;;;25.02;;
38132;SDS011;23948;43.252;26.572;2022-12-18T11:04:59;42.53;;;26.02;;
38132;SDS011;23948;43.252;26.572;2022-12-18T11:07:24;34.40;;;22.42;;
38132;SDS011;23948;43.252;26.572;2022-12-18T11:10:00;30.10;;;20.25;;
38132;SDS011;23948;43.252;26.572;2022-12-18T11:12:25;34.60;;;21.58;;
38132;SDS011;23948;43.252;26.572;2022-12-18T11:14:55;35.20;;;23.48;;
38132;SDS011;23948;43.252;26.572;2022-12-18T11:17:22;36.75;;;23.92;;
38132;SDS011;23948;43.252;26.572;2022-12-18T11:19:55;46.80;;;29.65;;
38132;SDS011;23948;43.252;26.572;2022-12-18T11:22:25;39.72;;;25.65;;
38132;SDS011;23948;43.252;26.572;2022-12-18T11:24:54;33.35;;;22.15;;
38132;SDS011;23948;43.252;26.572;2022-12-18T11:27:20;39.20;;;23.92;;
38132;SDS011;23948;43.252;26.572;2022-12-18T11:29:45;27.50;;;17.63;;
38132;SDS011;23948;43.252;26.572;2022-12-18T11:34:59;34.00;;;22.45;;
38132;SDS011;23948;43.252;26.572;2022-12-18T11:37:26;31.02;;;19.92;;
38132;SDS011;23948;43.252;26.572;2022-12-18T11:39:56;30.25;;;20.23;;
38132;SDS011;23948;43.252;26.572;2022-12-18T11:42:27;29.70;;;18.63;;
38132;SDS011;23948;43.252;26.572;2022-12-18T11:45:07;28.25;;;18.13;;
38132;SDS011;23948;43.252;26.572;2022-12-18T11:47:39;31.45;;;19.17;;
38132;SDS011;23948;43.252;26.572;2022-12-18T11:50:12;32.08;;;18.85;;
38132;SDS011;23948;43.252;26.572;2022-12-18T11:55:16;28.13;;;18.45;;
38132;SDS011;23948;43.252;26.572;2022-12-18T11:57:49;30.17;;;18.52;;
38132;SDS011;23948;43.252;26.572;2022-12-18T12:00:19;31.48;;;19.33;;
38132;SDS011;23948;43.252;26.572;2022-12-18T12:10:18;33.10;;;20.90;;
38132;SDS011;23948;43.252;26.572;2022-12-18T12:25:28;37.22;;;23.25;;
38132;SDS011;23948;43.252;26.572;2022-12-18T12:28:06;34.72;;;21.23;;
38132;SDS011;23948;43.252;26.572;2022-12-18T12:35:55;28.95;;;19.35;;
38132;SDS011;23948;43.252;26.572;2022-12-18T12:38:30;35.33;;;21.45;;
38132;SDS011;23948;43.252;26.572;2022-12-18T12:41:00;32.15;;;21.13;;
38132;SDS011;23948;43.252;26.572;2022-12-18T12:45:57;35.75;;;23.85;;
38132;SDS011;23948;43.252;26.572;2022-12-18T12:53:45;36.45;;;24.25;;
38132;SDS011;23948;43.252;26.572;2022-12-18T12:56:12;41.10;;;25.67;;
38132;SDS011;23948;43.252;26.572;2022-12-18T12:58:46;39.28;;;25.60;;
38132;SDS011;23948;43.252;26.572;2022-12-18T13:01:20;36.22;;;23.23;;
38132;SDS011;23948;43.252;26.572;2022-12-18T13:08:57;29.90;;;20.50;;
38132;SDS011;23948;43.252;26.572;2022-12-18T13:14:20;36.38;;;23.92;;
38132;SDS011;23948;43.252;26.572;2022-12-18T13:16:46;35.20;;;22.92;;
38132;SDS011;23948;43.252;26.572;2022-12-18T13:19:20;37.50;;;23.50;;
38132;SDS011;23948;43.252;26.572;2022-12-18T13:21:51;43.58;;;27.02;;
38132;SDS011;23948;43.252;26.572;2022-12-18T13:24:27;38.58;;;24.63;;
38132;SDS011;23948;43.252;26.572;2022-12-18T13:26:54;43.45;;;29.48;;
38132;SDS011;23948;43.252;26.572;2022-12-18T13:30:02;40.55;;;23.90;;
38132;SDS011;23948;43.252;26.572;2022-12-18T13:32:41;43.72;;;28.10;;
38132;SDS011;23948;43.252;26.572;2022-12-18T13:37:43;48.95;;;29.92;;
38132;SDS011;23948;43.252;26.572;2022-12-18T13:42:52;38.92;;;24.33;;
38132;SDS011;23948;43.252;26.572;2022-12-18T13:45:43;38.25;;;24.13;;
38132;SDS011;23948;43.252;26.572;2022-12-18T13:48:21;39.72;;;23.88;;
38132;SDS011;23948;43.252;26.572;2022-12-18T13:50:55;34.30;;;21.83;;
38132;SDS011;23948;43.252;26.572;2022-12-18T13:53:23;48.85;;;29.85;;
38132;SDS011;23948;43.252;26.572;2022-12-18T13:55:49;50.38;;;31.63;;
38132;SDS011;23948;43.252;26.572;2022-12-18T13:58:15;42.15;;;27.85;;
38132;SDS011;23948;43.252;26.572;2022-12-18T14:00:41;43.63;;;28.23;;
38132;SDS011;23948;43.252;26.572;2022-12-18T14:03:20;37.22;;;23.40;;
38132;SDS011;23948;43.252;26.572;2022-12-18T14:05:47;38.03;;;25.67;;
38132;SDS011;23948;43.252;26.572;2022-12-18T14:08:24;40.78;;;24.42;;
38132;SDS011;23948;43.252;26.572;2022-12-18T14:10:51;37.53;;;24.73;;
38132;SDS011;23948;43.252;26.572;2022-12-18T14:13:23;37.78;;;21.40;;
38132;SDS011;23948;43.252;26.572;2022-12-18T14:15:49;36.25;;;24.58;;
38132;SDS011;23948;43.252;26.572;2022-12-18T14:20:57;38.13;;;20.25;;
38132;SDS011;23948;43.252;26.572;2022-12-18T14:25:53;39.22;;;21.77;;
38132;SDS011;23948;43.252;26.572;2022-12-18T14:28:18;36.20;;;22.75;;
38132;SDS011;23948;43.252;26.572;2022-12-18T14:30:44;36.85;;;24.50;;
38132;SDS011;23948;43.252;26.572;2022-12-18T14:33:11;43.03;;;27.60;;
38132;SDS011;23948;43.252;26.572;2022-12-18T14:35:41;36.40;;;22.65;;
38132;SDS011;23948;43.252;26.572;2022-12-18T14:40:35;67.50;;;42.03;;
38132;SDS011;23948;43.252;26.572;2022-12-18T14:43:01;49.00;;;30.88;;
38132;SDS011;23948;43.252;26.572;2022-12-18T14:45:44;46.85;;;29.95;;
38132;SDS011;23948;43.252;26.572;2022-12-18T14:50:36;41.85;;;25.63;;
38132;SDS011;23948;43.252;26.572;2022-12-18T14:53:21;49.75;;;30.05;;
38132;SDS011;23948;43.252;26.572;2022-12-18T14:55:47;41.45;;;27.02;;
38132;SDS011;23948;43.252;26.572;2022-12-18T14:58:13;47.03;;;26.88;;
38132;SDS011;23948;43.252;26.572;2022-12-18T15:00:41;40.65;;;26.17;;
38132;SDS011;23948;43.252;26.572;2022-12-18T15:03:06;41.60;;;25.88;;
38132;SDS011;23948;43.252;26.572;2022-12-18T15:05:32;46.42;;;29.83;;
38132;SDS011;23948;43.252;26.572;2022-12-18T15:07:58;57.30;;;36.88;;
38132;SDS011;23948;43.252;26.572;2022-12-18T15:10:28;53.33;;;33.67;;
38132;SDS011;23948;43.252;26.572;2022-12-18T15:20:38;49.95;;;29.38;;
38132;SDS011;23948;43.252;26.572;2022-12-18T15:23:04;50.97;;;30.70;;
38132;SDS011;23948;43.252;26.572;2022-12-18T15:25:36;59.65;;;38.25;;
38132;SDS011;23948;43.252;26.572;2022-12-18T15:28:02;52.78;;;31.73;;
38132;SDS011;23948;43.252;26.572;2022-12-18T15:30:28;46.08;;;29.05;;
38132;SDS011;23948;43.252;26.572;2022-12-18T15:33:16;53.15;;;32.95;;
38132;SDS011;23948;43.252;26.572;2022-12-18T15:35:38;49.58;;;32.25;;
38132;SDS011;23948;43.252;26.572;2022-12-18T15:38:04;73.07;;;42.22;;
38132;SDS011;23948;43.252;26.572;2022-12-18T15:40:29;58.47;;;35.85;;
38132;SDS011;23948;43.252;26.572;2022-12-18T15:42:54;63.58;;;40.88;;
38132;SDS011;23948;43.252;26.572;2022-12-18T15:45:38;64.57;;;37.60;;
38132;SDS011;23948;43.252;26.572;2022-12-18T15:48:18;56.03;;;35.28;;
38132;SDS011;23948;43.252;26.572;2022-12-18T15:50:43;64.07;;;37.63;;
38132;SDS011;23948;43.252;26.572;2022-12-18T15:53:09;60.05;;;39.13;;
38132;SDS011;23948;43.252;26.572;2022-12-18T15:55:34;56.45;;;36.75;;